createdAt,value
2018-11-02T00:00:47.570Z,100671.17
2018-11-02T00:03:15.249Z,100681.24
2018-11-02T00:05:43.005Z,100680.64
2018-11-02T00:08:10.677Z,100677.72
2018-11-02T00:10:38.617Z,100682.70
2018-11-02T00:13:06.334Z,100683.60
2018-11-02T00:15:34.104Z,100696.73
2018-11-02T00:18:01.781Z,100698.77
2018-11-02T00:20:29.510Z,100699.91
2018-11-02T00:22:57.197Z,100695.59
2018-11-02T00:25:24.870Z,100706.16
2018-11-02T00:27:52.626Z,100706.80
2018-11-02T00:30:20.306Z,100704.92
2018-11-02T00:32:47.996Z,100696.09
2018-11-02T00:35:15.734Z,100694.23
2018-11-02T00:37:43.410Z,100697.70
2018-11-02T00:40:11.084Z,100695.57
2018-11-02T00:42:39.385Z,100691.06
2018-11-02T00:45:08.860Z,100688.18
2018-11-02T00:47:36.548Z,100689.09
2018-11-02T00:50:05.105Z,100686.00
2018-11-02T00:52:32.778Z,100689.42
2018-11-02T00:55:00.454Z,100692.40
2018-11-02T00:57:28.186Z,100685.58
2018-11-02T00:59:55.858Z,100696.09
2018-11-02T01:02:23.541Z,100692.53
2018-11-02T01:04:51.253Z,100692.31
2018-11-02T01:07:18.939Z,100692.23
2018-11-02T01:09:46.682Z,100688.53
2018-11-02T01:12:14.546Z,100684.87
2018-11-02T01:14:42.262Z,100683.72
2018-11-02T01:17:10.028Z,100682.90
2018-11-02T01:19:37.814Z,100680.09
2018-11-02T01:22:06.025Z,100667.83
2018-11-02T01:24:33.909Z,100667.45
2018-11-02T01:27:01.758Z,100659.40
2018-11-02T01:29:29.747Z,100662.25
2018-11-02T01:31:57.681Z,100658.90
2018-11-02T01:34:25.590Z,100657.81
2018-11-02T01:36:53.320Z,100658.88
2018-11-02T01:39:21.062Z,100658.25
2018-11-02T01:41:48.889Z,100656.52
2018-11-02T01:44:16.649Z,100654.06
2018-11-02T01:46:44.351Z,100655.30
2018-11-02T01:49:12.089Z,100647.37
2018-11-02T01:51:39.777Z,100646.81
2018-11-02T01:54:07.491Z,100652.01
2018-11-02T01:56:35.270Z,100651.70
2018-11-02T01:59:02.961Z,100655.62
2018-11-02T02:01:30.693Z,100652.72
2018-11-02T02:03:58.414Z,100652.92
2018-11-02T02:06:26.128Z,100650.63
2018-11-02T02:08:53.793Z,100649.30
2018-11-02T02:11:21.520Z,100647.95
2018-11-02T02:13:49.194Z,100653.94
2018-11-02T02:16:16.990Z,100657.08
2018-11-02T02:18:44.830Z,100653.44
2018-11-02T02:21:12.578Z,100661.16
2018-11-02T02:23:40.345Z,100661.79
2018-11-02T02:26:08.174Z,100656.88
2018-11-02T02:28:35.905Z,100666.63
2018-11-02T02:31:03.701Z,100664.95
2018-11-02T02:33:31.502Z,100667.23
2018-11-02T02:35:59.209Z,100667.77
2018-11-02T02:38:26.914Z,100663.23
2018-11-02T02:40:54.662Z,100663.88
2018-11-02T02:43:22.444Z,100658.83
2018-11-02T02:45:50.150Z,100659.60
2018-11-02T02:48:17.925Z,100655.52
2018-11-02T02:50:45.657Z,100659.80
2018-11-02T02:53:13.477Z,100661.66
2018-11-02T02:55:41.243Z,100666.80
2018-11-02T02:58:09.014Z,100669.62
2018-11-02T03:00:36.797Z,100672.58
2018-11-02T03:03:04.913Z,100674.77
2018-11-02T03:05:32.676Z,100675.63
2018-11-02T03:08:00.386Z,100681.80
2018-11-02T03:10:28.213Z,100686.17
2018-11-02T03:12:55.963Z,100673.73
2018-11-02T03:15:23.734Z,100678.20
2018-11-02T03:17:51.505Z,100670.16
2018-11-02T03:20:19.247Z,100668.81
2018-11-02T03:22:47.019Z,100670.63
2018-11-02T03:25:14.889Z,100670.19
2018-11-02T03:27:42.600Z,100663.61
2018-11-02T03:30:11.398Z,100664.03
2018-11-02T03:32:39.172Z,100662.34
2018-11-02T03:35:06.996Z,100659.09
2018-11-02T03:37:34.678Z,100658.73
2018-11-02T03:40:02.452Z,100658.97
2018-11-02T03:42:30.193Z,100655.80
2018-11-02T03:44:57.954Z,100657.26
2018-11-02T03:47:25.762Z,100663.45
2018-11-02T03:49:53.540Z,100661.95
2018-11-02T03:52:21.259Z,100663.95
2018-11-02T03:54:49.027Z,100662.09
2018-11-02T03:57:16.743Z,100664.39
2018-11-02T03:59:44.512Z,100661.45
2018-11-02T04:02:12.259Z,100660.39
2018-11-02T04:04:39.998Z,100657.11
2018-11-02T04:07:07.742Z,100658.18
2018-11-02T04:09:35.598Z,100661.58
2018-11-02T04:12:03.343Z,100661.11
2018-11-02T04:14:31.090Z,100652.34
2018-11-02T04:16:58.886Z,100650.50
2018-11-02T04:19:26.635Z,100652.64
2018-11-02T04:21:54.343Z,100644.93
2018-11-02T04:24:22.113Z,100649.86
2018-11-02T04:26:49.847Z,100654.57
2018-11-02T04:29:17.603Z,100659.30
2018-11-02T04:31:45.416Z,100659.01
2018-11-02T04:34:14.020Z,100669.06
2018-11-02T04:36:41.774Z,100665.50
2018-11-02T04:39:13.647Z,100669.89
2018-11-02T04:41:41.410Z,100668.08
2018-11-02T04:44:09.830Z,100672.58
2018-11-02T04:46:38.186Z,100676.61
2018-11-02T04:49:06.409Z,100679.20
2018-11-02T04:51:34.123Z,100680.05
2018-11-02T04:54:01.943Z,100679.41
2018-11-02T04:56:29.771Z,100677.69
2018-11-02T04:58:57.526Z,100681.26
2018-11-02T05:01:25.291Z,100678.96
2018-11-02T05:03:53.077Z,100676.93
2018-11-02T05:06:21.071Z,100671.95
2018-11-02T05:08:48.907Z,100682.80
2018-11-02T05:11:16.753Z,100682.44
2018-11-02T05:13:44.556Z,100682.50
2018-11-02T05:16:12.670Z,100681.77
2018-11-02T05:18:40.415Z,100686.06
2018-11-02T05:21:08.658Z,100679.84
2018-11-02T05:23:36.864Z,100680.72
2018-11-02T05:26:04.679Z,100689.08
2018-11-02T05:28:32.923Z,100692.70
2018-11-02T05:31:00.692Z,100692.74
2018-11-02T05:33:28.487Z,100701.97
2018-11-02T05:35:56.599Z,100704.84
2018-11-02T05:38:24.378Z,100711.19
2018-11-02T05:40:52.239Z,100703.03
2018-11-02T05:43:19.964Z,100702.31
2018-11-02T05:45:47.727Z,100708.77
2018-11-02T05:48:15.483Z,100715.85
2018-11-02T05:50:43.223Z,100708.31
2018-11-02T05:53:10.963Z,100719.19
2018-11-02T05:55:38.792Z,100714.87
2018-11-02T05:58:06.518Z,100715.76
2018-11-02T06:00:34.367Z,100710.79
2018-11-02T06:03:02.139Z,100705.20
2018-11-02T06:05:30.263Z,100709.00
2018-11-02T06:07:58.060Z,100714.89
2018-11-02T06:10:25.836Z,100717.52
2018-11-02T06:12:53.620Z,100708.91
2018-11-02T06:15:21.369Z,100720.98
2018-11-02T06:17:49.114Z,100717.09
2018-11-02T06:20:16.894Z,100728.95
2018-11-02T06:22:44.610Z,100730.20
2018-11-02T06:25:12.308Z,100728.21
2018-11-02T06:27:40.031Z,100731.04
2018-11-02T06:30:08.867Z,100718.94
2018-11-02T06:32:36.646Z,100724.97
2018-11-02T06:35:05.059Z,100721.31
2018-11-02T06:37:32.820Z,100714.08
2018-11-02T06:40:00.560Z,100723.73
2018-11-02T06:42:28.286Z,100717.23
2018-11-02T06:44:56.198Z,100718.82
2018-11-02T06:47:23.919Z,100721.27
2018-11-02T06:49:51.660Z,100714.59
2018-11-02T06:52:19.588Z,100724.39
2018-11-02T06:54:47.364Z,100726.52
2018-11-02T06:57:15.159Z,100718.41
2018-11-02T06:59:43.120Z,100718.27
2018-11-02T07:02:10.736Z,100715.86
2018-11-02T07:04:38.621Z,100716.80
2018-11-02T07:07:06.436Z,100728.48
2018-11-02T07:09:34.181Z,100724.47
2018-11-02T07:12:01.935Z,100720.09
2018-11-02T07:14:29.774Z,100721.22
2018-11-02T07:16:57.527Z,100730.41
2018-11-02T07:19:25.257Z,100727.58
2018-11-02T07:21:53.026Z,100721.98
2018-11-02T07:24:20.823Z,100731.67
2018-11-02T07:26:48.638Z,100729.16
2018-11-02T07:29:16.443Z,100726.45
2018-11-02T07:31:44.204Z,100724.98
2018-11-02T07:34:12.054Z,100721.95
2018-11-02T07:36:39.818Z,100715.17
2018-11-02T07:39:09.307Z,100717.00
2018-11-02T07:41:37.088Z,100723.73
2018-11-02T07:44:04.923Z,100728.46
2018-11-02T07:46:32.731Z,100723.92
2018-11-02T07:49:00.490Z,100721.19
2018-11-02T07:51:28.322Z,100729.41
2018-11-02T07:53:56.458Z,100719.64
2018-11-02T07:56:24.237Z,100715.48
2018-11-02T07:58:52.058Z,100718.28
2018-11-02T08:01:19.802Z,100723.34
2018-11-02T08:03:47.515Z,100716.19
2018-11-02T08:06:16.324Z,100718.13
2018-11-02T08:08:44.062Z,100710.51
2018-11-02T08:11:11.810Z,100706.21
2018-11-02T08:13:39.635Z,100723.56
2018-11-02T08:16:07.362Z,100711.25
2018-11-02T08:18:35.111Z,100708.28
2018-11-02T08:21:02.952Z,100701.97
2018-11-02T08:23:30.700Z,100708.65
2018-11-02T08:25:58.448Z,100709.03
2018-11-02T08:28:26.232Z,100709.95
2018-11-02T08:30:53.965Z,100709.25
2018-11-02T08:33:21.791Z,100711.44
2018-11-02T08:35:49.592Z,100709.78
2018-11-02T08:38:17.275Z,100708.23
2018-11-02T08:40:44.955Z,100710.81
2018-11-02T08:43:12.669Z,100716.36
2018-11-02T08:45:40.364Z,100709.75
2018-11-02T08:48:08.054Z,100709.27
2018-11-02T08:50:35.770Z,100699.23
2018-11-02T08:53:03.623Z,100695.78
2018-11-02T08:55:31.315Z,100698.33
2018-11-02T08:57:59.167Z,100695.02
2018-11-02T09:00:26.818Z,100693.82
2018-11-02T09:02:54.499Z,100700.42
2018-11-02T09:05:22.277Z,100686.73
2018-11-02T09:07:50.056Z,100675.66
2018-11-02T09:10:17.823Z,100685.05
2018-11-02T09:12:45.671Z,100690.77
2018-11-02T09:15:13.439Z,100685.61
2018-11-02T09:17:41.197Z,100686.81
2018-11-02T09:20:09.059Z,100684.80
2018-11-02T09:22:36.884Z,100676.50
2018-11-02T09:25:05.953Z,100677.91
2018-11-02T09:27:33.824Z,100672.76
2018-11-02T09:30:01.526Z,100654.19
2018-11-02T09:32:29.205Z,100658.80
2018-11-02T09:34:56.955Z,100652.14
2018-11-02T09:37:24.798Z,100655.28
2018-11-02T09:39:52.514Z,100639.88
2018-11-02T09:42:20.323Z,100644.39
2018-11-02T09:44:48.144Z,100637.38
2018-11-02T09:47:15.932Z,100637.39
2018-11-02T09:49:43.752Z,100624.38
2018-11-02T09:52:11.557Z,100626.74
2018-11-02T09:54:39.247Z,100628.00
2018-11-02T09:57:07.088Z,100623.61
2018-11-02T09:59:34.903Z,100622.17
2018-11-02T10:02:02.804Z,100618.76
2018-11-02T10:04:30.673Z,100616.75
2018-11-02T10:06:58.555Z,100610.92
2018-11-02T10:09:26.343Z,100591.09
2018-11-02T10:11:54.154Z,100597.66
2018-11-02T10:14:22.007Z,100597.75
2018-11-02T10:16:49.731Z,100597.48
2018-11-02T10:19:17.507Z,100596.50
2018-11-02T10:21:45.255Z,100606.65
2018-11-02T10:24:13.027Z,100602.47
2018-11-02T10:26:40.907Z,100595.13
2018-11-02T10:29:08.755Z,100588.48
2018-11-02T10:31:36.631Z,100585.48
2018-11-02T10:34:04.630Z,100596.69
2018-11-02T10:36:33.068Z,100592.39
2018-11-02T10:39:01.093Z,100590.80
2018-11-02T10:41:32.803Z,100584.52
2018-11-02T10:44:00.799Z,100579.15
2018-11-02T10:46:28.659Z,100572.63
2018-11-02T10:48:56.420Z,100566.59
2018-11-02T10:51:24.200Z,100555.48
2018-11-02T10:53:51.947Z,100556.95
2018-11-02T10:56:19.970Z,100549.16
2018-11-02T10:58:47.765Z,100547.97
2018-11-02T11:01:21.202Z,100550.53
2018-11-02T11:03:48.952Z,100548.44
2018-11-02T11:06:16.768Z,100537.64
2018-11-02T11:08:44.719Z,100549.11
2018-11-02T11:11:12.574Z,100556.16
2018-11-02T11:13:40.764Z,100541.08
2018-11-02T11:16:08.274Z,100530.34
2018-11-02T11:18:36.067Z,100528.57
2018-11-02T11:21:03.900Z,100531.94
2018-11-02T11:23:31.788Z,100535.00
2018-11-02T11:25:59.582Z,100527.35
2018-11-02T11:28:27.390Z,100525.52
2018-11-02T11:30:55.246Z,100523.39
2018-11-02T11:33:23.029Z,100515.83
2018-11-02T11:35:50.814Z,100511.56
2018-11-02T11:38:18.691Z,100513.30
2018-11-02T11:40:46.488Z,100511.81
2018-11-02T11:43:14.275Z,100507.56
2018-11-02T11:45:42.134Z,100506.02
2018-11-02T11:48:09.979Z,100511.26
2018-11-02T11:50:37.776Z,100502.95
2018-11-02T11:53:05.620Z,100512.67
2018-11-02T11:55:33.435Z,100511.75
2018-11-02T11:58:01.281Z,100505.42
2018-11-02T12:00:29.127Z,100507.74
2018-11-02T12:02:56.969Z,100504.77
2018-11-02T12:05:24.771Z,100505.83
2018-11-02T12:07:52.594Z,100505.66
2018-11-02T12:10:23.229Z,100507.45
2018-11-02T12:12:51.222Z,100499.48
2018-11-02T12:15:20.863Z,100496.23
2018-11-02T12:17:48.933Z,100496.03
2018-11-02T12:20:18.310Z,100494.74
2018-11-02T12:22:46.783Z,100491.94
2018-11-02T12:25:14.876Z,100497.41
2018-11-02T12:27:42.723Z,100492.27
2018-11-02T12:30:12.811Z,100494.09
2018-11-02T12:32:40.595Z,100494.32
2018-11-02T12:35:10.064Z,100484.02
2018-11-02T12:37:37.891Z,100483.66
2018-11-02T12:40:07.732Z,100487.25
2018-11-02T12:42:35.875Z,100493.11
2018-11-02T12:45:03.689Z,100494.15
2018-11-02T12:47:31.544Z,100494.56
2018-11-02T12:49:59.295Z,100493.34
2018-11-02T12:52:27.122Z,100489.75
2018-11-02T12:54:54.875Z,100490.91
2018-11-02T12:57:22.615Z,100492.79
2018-11-02T12:59:50.420Z,100491.48
2018-11-02T13:02:18.243Z,100491.80
2018-11-02T13:04:46.063Z,100490.56
2018-11-02T13:07:13.917Z,100490.29
2018-11-02T13:09:41.814Z,100491.17
2018-11-02T13:12:09.503Z,100492.89
2018-11-02T13:14:37.412Z,100492.55
2018-11-02T13:17:05.276Z,100499.55
2018-11-02T13:19:33.046Z,100501.18
2018-11-02T13:22:00.931Z,100495.21
2018-11-02T13:24:28.546Z,100500.84
2018-11-02T13:26:56.424Z,100500.79
2018-11-02T13:29:24.216Z,100498.63
2018-11-02T13:31:52.044Z,100500.31
2018-11-02T13:34:20.647Z,100494.11
2018-11-02T13:36:48.522Z,100498.19
2018-11-02T13:39:16.290Z,100498.50
2018-11-02T13:41:44.088Z,100493.70
2018-11-02T13:44:11.908Z,100506.47
2018-11-02T13:46:39.679Z,100495.92
2018-11-02T13:49:08.399Z,100504.76
2018-11-02T13:51:36.215Z,100504.84
2018-11-02T13:54:04.065Z,100506.81
2018-11-02T13:56:31.828Z,100508.09
2018-11-02T13:58:59.636Z,100507.95
2018-11-02T14:01:27.475Z,100513.84
2018-11-02T14:03:55.202Z,100515.20
2018-11-02T14:06:23.030Z,100515.69
2018-11-02T14:08:50.819Z,100520.76
2018-11-02T14:11:18.603Z,100520.48
2018-11-02T14:13:46.348Z,100515.35
2018-11-02T14:16:14.135Z,100522.06
2018-11-02T14:18:41.980Z,100518.70
2018-11-02T14:21:09.743Z,100523.38
2018-11-02T14:23:37.434Z,100522.39
2018-11-02T14:26:05.742Z,100522.49
2018-11-02T14:28:33.574Z,100526.75
2018-11-02T14:31:01.344Z,100523.73
2018-11-02T14:33:29.157Z,100530.73
2018-11-02T14:35:56.956Z,100532.05
2018-11-02T14:38:24.718Z,100530.47
2018-11-02T14:40:52.523Z,100533.80
2018-11-02T14:43:20.299Z,100542.73
2018-11-02T14:45:48.063Z,100542.36
2018-11-02T14:48:15.847Z,100545.87
2018-11-02T14:50:43.640Z,100550.90
2018-11-02T14:53:11.401Z,100555.54
2018-11-02T14:55:39.232Z,100560.80
2018-11-02T14:58:07.336Z,100557.23
2018-11-02T15:00:35.129Z,100564.25
2018-11-02T15:03:02.928Z,100558.91
2018-11-02T15:05:30.726Z,100561.39
2018-11-02T15:07:58.479Z,100563.48
2018-11-02T15:10:26.335Z,100570.03
2018-11-02T15:12:54.099Z,100570.37
2018-11-02T15:15:21.948Z,100573.02
2018-11-02T15:17:49.745Z,100574.59
2018-11-02T15:20:17.570Z,100577.05
2018-11-02T15:22:45.327Z,100572.51
2018-11-02T15:25:13.032Z,100576.33
2018-11-02T15:27:40.824Z,100582.80
2018-11-02T15:30:10.619Z,100587.42
2018-11-02T15:32:38.477Z,100584.84
2018-11-02T15:35:07.064Z,100592.03
2018-11-02T15:37:34.856Z,100588.11
2018-11-02T15:40:02.655Z,100589.09
2018-11-02T15:42:30.476Z,100595.08
2018-11-02T15:44:58.172Z,100592.11
2018-11-02T15:47:25.867Z,100596.87
2018-11-02T15:49:53.671Z,100597.75
2018-11-02T15:52:21.435Z,100597.76
2018-11-02T15:54:49.187Z,100604.39
2018-11-02T15:57:16.999Z,100609.16
2018-11-02T15:59:44.751Z,100606.63
2018-11-02T16:02:12.554Z,100609.84
2018-11-02T16:04:40.411Z,100614.39
2018-11-02T16:07:08.235Z,100620.73
2018-11-02T16:09:35.952Z,100624.69
2018-11-02T16:12:04.002Z,100621.98
2018-11-02T16:14:31.787Z,100625.76
2018-11-02T16:16:59.635Z,100625.91
2018-11-02T16:19:27.375Z,100626.66
2018-11-02T16:21:55.233Z,100634.25
2018-11-02T16:24:23.029Z,100635.09
2018-11-02T16:26:50.887Z,100639.95
2018-11-02T16:29:18.663Z,100641.55
2018-11-02T16:31:46.449Z,100645.30
2018-11-02T16:34:14.771Z,100640.39
2018-11-02T16:36:42.527Z,100641.98
2018-11-02T16:39:11.535Z,100640.95
2018-11-02T16:41:40.187Z,100644.53
2018-11-02T16:44:08.383Z,100648.35
2018-11-02T16:46:36.156Z,100652.55
2018-11-02T16:49:04.023Z,100654.00
2018-11-02T16:51:31.776Z,100652.77
2018-11-02T16:53:59.651Z,100656.44
2018-11-02T16:56:27.509Z,100649.42
2018-11-02T16:58:55.286Z,100651.41
2018-11-02T17:01:23.093Z,100658.01
2018-11-02T17:03:50.907Z,100650.17
2018-11-02T17:06:18.707Z,100657.39
2018-11-02T17:08:46.474Z,100655.28
2018-11-02T17:11:14.271Z,100651.99
2018-11-02T17:13:42.064Z,100658.69
2018-11-02T17:16:09.793Z,100653.45
2018-11-02T17:18:37.554Z,100657.32
2018-11-02T17:21:05.595Z,100658.27
2018-11-02T17:23:33.367Z,100655.34
2018-11-02T17:26:01.189Z,100654.39
2018-11-02T17:28:29.133Z,100656.51
2018-11-02T17:30:56.848Z,100652.67
2018-11-02T17:33:24.593Z,100648.28
2018-11-02T17:35:52.391Z,100647.86
2018-11-02T17:38:20.299Z,100651.03
2018-11-02T17:40:48.074Z,100650.23
2018-11-02T17:43:15.831Z,100653.81
2018-11-02T17:45:43.648Z,100656.04
2018-11-02T17:48:11.479Z,100661.80
2018-11-02T17:50:39.207Z,100659.41
2018-11-02T17:53:07.082Z,100660.05
2018-11-02T17:55:34.807Z,100656.35
2018-11-02T17:58:02.559Z,100659.72
2018-11-02T18:00:30.390Z,100656.80
2018-11-02T18:02:58.191Z,100662.15
2018-11-02T18:05:25.902Z,100663.09
2018-11-02T18:07:53.711Z,100659.64
2018-11-02T18:10:21.514Z,100659.76
2018-11-02T18:12:49.255Z,100660.46
2018-11-02T18:15:17.040Z,100662.27
2018-11-02T18:17:44.860Z,100661.78
2018-11-02T18:20:14.285Z,100656.11
2018-11-02T18:22:42.327Z,100662.81
2018-11-02T18:25:10.388Z,100662.41
2018-11-02T18:27:38.100Z,100667.11
2018-11-02T18:30:06.995Z,100668.18
2018-11-02T18:32:34.876Z,100662.41
2018-11-02T18:35:02.867Z,100664.28
2018-11-02T18:37:30.483Z,100663.87
2018-11-02T18:39:58.312Z,100665.86
2018-11-02T18:42:26.183Z,100668.47
2018-11-02T18:44:53.927Z,100663.35
2018-11-02T18:47:21.849Z,100670.05
2018-11-02T18:49:49.581Z,100679.47
2018-11-02T18:52:17.334Z,100677.27
2018-11-02T18:54:45.135Z,100677.17
2018-11-02T18:57:12.847Z,100681.44
2018-11-02T18:59:40.663Z,100682.66
2018-11-02T19:02:08.536Z,100687.12
2018-11-02T19:04:36.403Z,100681.14
2018-11-02T19:07:04.277Z,100674.83
2018-11-02T19:09:32.041Z,100678.69
2018-11-02T19:11:59.825Z,100682.08
2018-11-02T19:14:27.575Z,100678.69
2018-11-02T19:16:55.315Z,100678.78
2018-11-02T19:19:23.143Z,100685.55
2018-11-02T19:21:50.896Z,100685.84
2018-11-02T19:24:18.688Z,100689.20
2018-11-02T19:26:46.543Z,100688.91
2018-11-02T19:29:14.447Z,100692.05
2018-11-02T19:31:42.322Z,100688.62
2018-11-02T19:34:10.160Z,100686.28
2018-11-02T19:36:38.449Z,100685.34
2018-11-02T19:39:09.945Z,100688.45
2018-11-02T19:41:39.295Z,100690.74
2018-11-02T19:44:07.161Z,100687.23
2018-11-02T19:46:34.935Z,100690.75
2018-11-02T19:49:02.824Z,100686.34
2018-11-02T19:51:30.595Z,100690.11
2018-11-02T19:53:58.459Z,100695.66
2018-11-02T19:56:26.196Z,100700.30
2018-11-02T19:58:53.963Z,100695.71
2018-11-02T20:01:21.723Z,100696.89
2018-11-02T20:03:49.518Z,100696.17
2018-11-02T20:06:17.240Z,100702.86
2018-11-02T20:08:45.043Z,100710.66
2018-11-02T20:11:12.811Z,100706.94
2018-11-02T20:13:41.034Z,100703.19
2018-11-02T20:16:09.142Z,100715.75
2018-11-02T20:18:37.624Z,100714.34
2018-11-02T20:21:05.995Z,100718.30
2018-11-02T20:23:34.630Z,100716.23
2018-11-02T20:26:03.117Z,100712.06
2018-11-02T20:28:31.396Z,100709.66
2018-11-02T20:30:59.643Z,100712.19
2018-11-02T20:33:27.908Z,100717.89
2018-11-02T20:35:56.212Z,100718.61
2018-11-02T20:38:24.716Z,100716.67
2018-11-02T20:40:52.739Z,100721.56
2018-11-02T20:43:21.241Z,100723.46
2018-11-02T20:45:49.525Z,100720.17
2018-11-02T20:48:17.759Z,100718.70
2018-11-02T20:50:46.070Z,100719.91
2018-11-02T20:53:13.879Z,100711.97
2018-11-02T20:55:41.638Z,100713.33
2018-11-02T20:58:09.471Z,100707.19
2018-11-02T21:00:37.268Z,100707.23
2018-11-02T21:03:05.672Z,100715.37
2018-11-02T21:05:34.114Z,100706.34
2018-11-02T21:08:02.487Z,100715.00
2018-11-02T21:10:30.811Z,100715.20
2018-11-02T21:12:59.062Z,100717.52
2018-11-02T21:15:27.535Z,100715.98
2018-11-02T21:17:55.336Z,100715.51
2018-11-02T21:20:24.514Z,100718.73
2018-11-02T21:22:52.908Z,100721.52
2018-11-02T21:25:21.120Z,100725.98
2018-11-02T21:27:49.647Z,100724.13
2018-11-02T21:30:25.303Z,100725.03
2018-11-02T21:32:54.179Z,100729.75
2018-11-02T21:35:22.968Z,100724.66
2018-11-02T21:37:51.593Z,100723.40
2018-11-02T21:40:20.999Z,100724.25
2018-11-02T21:42:49.192Z,100722.64
2018-11-02T21:45:18.651Z,100724.63
2018-11-02T21:47:47.050Z,100720.99
2018-11-02T21:50:15.691Z,100719.72
2018-11-02T21:52:44.234Z,100720.67
2018-11-02T21:55:12.589Z,100719.45
2018-11-02T21:57:41.036Z,100725.22
2018-11-02T22:00:13.563Z,100721.32
2018-11-02T22:02:41.974Z,100724.23
2018-11-02T22:05:11.595Z,100731.21
2018-11-02T22:07:40.071Z,100728.78
2018-11-02T22:10:08.862Z,100733.67
2018-11-02T22:12:37.579Z,100732.83
2018-11-02T22:15:06.090Z,100732.74
2018-11-02T22:17:34.280Z,100731.98
2018-11-02T22:20:02.706Z,100737.41
2018-11-02T22:22:31.097Z,100738.11
2018-11-02T22:24:59.559Z,100740.42
2018-11-02T22:27:28.241Z,100738.70
2018-11-02T22:29:56.605Z,100739.38
2018-11-02T22:32:25.024Z,100740.73
2018-11-02T22:34:53.144Z,100736.50
2018-11-02T22:37:21.604Z,100739.72
2018-11-02T22:39:49.844Z,100734.75
2018-11-02T22:42:18.179Z,100734.09
2018-11-02T22:44:46.429Z,100733.39
2018-11-02T22:47:14.600Z,100735.25
2018-11-02T22:49:42.725Z,100733.92
2018-11-02T22:52:11.126Z,100731.27
2018-11-02T22:54:39.511Z,100732.67
2018-11-02T22:57:07.655Z,100732.07
2018-11-02T22:59:35.885Z,100727.95
2018-11-02T23:02:04.336Z,100728.56
2018-11-02T23:04:32.809Z,100727.20
2018-11-02T23:07:02.959Z,100730.91
2018-11-02T23:09:31.351Z,100726.51
2018-11-02T23:11:59.703Z,100728.71
2018-11-02T23:14:28.180Z,100731.22
2018-11-02T23:16:56.583Z,100733.89
2018-11-02T23:19:25.142Z,100727.36
2018-11-02T23:21:53.255Z,100732.43
2018-11-02T23:24:21.558Z,100731.73
2018-11-02T23:26:49.760Z,100726.74
2018-11-02T23:29:18.285Z,100735.53
2018-11-02T23:31:46.499Z,100733.52
2018-11-02T23:34:15.055Z,100731.70
2018-11-02T23:36:43.755Z,100736.42
2018-11-02T23:39:12.140Z,100734.28
2018-11-02T23:41:40.403Z,100728.30
2018-11-02T23:44:08.722Z,100728.60
2018-11-02T23:46:36.771Z,100733.32
2018-11-02T23:49:05.339Z,100733.02
2018-11-02T23:51:33.590Z,100742.86
2018-11-02T23:54:01.784Z,100737.55
2018-11-02T23:56:30.051Z,100739.59
2018-11-02T23:58:58.382Z,100742.81
